Time;durP1;ratioP1;P1;durP2;ratioP2;P2;SDS_P1;SDS_P2;PMS_P1;PMS_P2;Temp;Humidity;BMP_temperature;BMP_pressure;BME280_temperature;BME280_humidity;BME280_pressure;Samples;Min_cycle;Max_cycle;Signal;HPM_P1;HPM_P2
2022/08/29 00:00:36;;;;;;;6.72;3.28;;;15.60;93.30;;;;;;5074799;28;20028;-69
2022/08/29 00:03:03;;;;;;;5.82;3.10;;;15.60;93.30;;;;;;5066098;28;20406;-69
2022/08/29 00:05:33;;;;;;;7.70;3.60;;;15.60;93.40;;;;;;5067467;28;20032;-69
2022/08/29 00:08:00;;;;;;;9.40;2.78;;;15.60;93.50;;;;;;5064312;28;20052;-68
2022/08/29 00:10:28;;;;;;;5.35;2.90;;;15.60;93.50;;;;;;5063142;28;20107;-68
2022/08/29 00:12:54;;;;;;;10.40;3.83;;;15.50;93.60;;;;;;5065250;28;20504;-69
2022/08/29 00:15:20;;;;;;;7.22;3.00;;;15.50;93.60;;;;;;5075685;28;20594;-68
2022/08/29 00:17:47;;;;;;;6.18;2.80;;;15.50;93.70;;;;;;5074151;28;20020;-69
2022/08/29 00:20:18;;;;;;;4.88;2.33;;;15.50;93.70;;;;;;5066240;28;20032;-68
2022/08/29 00:22:44;;;;;;;7.72;3.03;;;15.50;93.80;;;;;;5065150;28;20699;-69
2022/08/29 00:25:11;;;;;;;7.35;2.75;;;15.50;93.80;;;;;;5067550;28;20036;-68
2022/08/29 00:27:36;;;;;;;8.25;3.28;;;15.50;93.80;;;;;;5074008;28;20056;-69
2022/08/29 00:30:04;;;;;;;6.45;2.75;;;15.40;93.70;;;;;;5062285;28;20062;-68
2022/08/29 00:32:33;;;;;;;7.13;2.60;;;15.40;93.80;;;;;;5067622;28;20753;-68
2022/08/29 00:35:09;;;;;;;4.38;2.60;;;15.40;93.70;;;;;;5067747;28;20526;-69
2022/08/29 00:37:35;;;;;;;5.10;2.60;;;15.40;93.90;;;;;;5066530;28;20036;-68
2022/08/29 00:40:03;;;;;;;5.85;2.55;;;15.40;93.80;;;;;;5065266;28;20101;-68
2022/08/29 00:42:30;;;;;;;7.15;2.78;;;15.40;93.80;;;;;;5066996;28;20046;-69
2022/08/29 00:44:56;;;;;;;9.73;2.95;;;15.40;93.80;;;;;;5063190;28;20025;-68
2022/08/29 00:47:28;;;;;;;9.82;2.92;;;15.30;93.80;;;;;;5064099;28;20673;-69
2022/08/29 00:49:56;;;;;;;7.50;3.13;;;15.30;93.80;;;;;;5062610;28;20068;-69
2022/08/29 00:52:38;;;;;;;6.57;3.10;;;15.30;93.70;;;;;;5072020;28;20905;-69
2022/08/29 00:55:11;;;;;;;5.38;2.72;;;15.30;93.80;;;;;;5068079;28;20127;-68
2022/08/29 00:57:39;;;;;;;8.80;2.90;;;15.30;93.80;;;;;;5067213;28;20036;-68
2022/08/29 01:00:07;;;;;;;4.85;2.40;;;15.30;93.80;;;;;;5066010;28;20036;-68
2022/08/29 01:02:33;;;;;;;9.88;3.00;;;15.20;93.90;;;;;;5063451;28;20032;-68
2022/08/29 01:04:59;;;;;;;5.80;2.70;;;15.20;93.90;;;;;;5061440;28;20389;-68
2022/08/29 01:07:26;;;;;;;6.28;2.80;;;15.20;93.90;;;;;;5072874;28;20039;-68
2022/08/29 01:09:52;;;;;;;5.45;2.50;;;15.20;94.00;;;;;;5064050;28;20044;-69
2022/08/29 01:12:20;;;;;;;6.10;2.75;;;15.20;94.00;;;;;;5069891;28;20690;-69
2022/08/29 01:14:55;;;;;;;9.05;3.05;;;15.10;94.00;;;;;;5067976;28;20043;-68
2022/08/29 01:17:44;;;;;;;9.27;3.10;;;15.10;94.00;;;;;;5067311;28;20044;-69
2022/08/29 01:20:20;;;;;;;5.25;2.45;;;15.10;94.00;;;;;;5068690;28;20039;-69
2022/08/29 01:23:23;;;;;;;5.80;2.47;;;15.10;94.00;;;;;;5062056;28;20028;-69
2022/08/29 01:25:50;;;;;;;7.57;3.03;;;15.00;93.90;;;;;;5061142;28;20086;-69
2022/08/29 01:28:24;;;;;;;5.95;2.58;;;15.00;94.00;;;;;;5066611;28;20033;-70
2022/08/29 01:31:21;;;;;;;7.55;2.75;;;15.00;94.10;;;;;;5076711;28;20060;-70
2022/08/29 01:33:55;;;;;;;6.45;3.05;;;15.00;94.20;;;;;;5064438;28;20067;-70
2022/08/29 01:36:31;;;;;;;4.30;2.83;;;15.00;94.30;;;;;;5068822;28;20040;-70
2022/08/29 01:38:57;;;;;;;4.15;2.72;;;15.00;94.30;;;;;;5068850;28;20064;-70
2022/08/29 01:41:23;;;;;;;9.55;3.03;;;15.00;94.30;;;;;;5077851;28;20115;-70
2022/08/29 01:43:52;;;;;;;6.95;2.67;;;15.00;94.30;;;;;;5074618;28;20118;-70
2022/08/29 01:46:25;;;;;;;6.15;3.22;;;15.00;94.30;;;;;;5063128;28;20029;-68
2022/08/29 01:48:51;;;;;;;7.28;2.83;;;15.00;94.20;;;;;;5068104;28;20032;-69
2022/08/29 01:51:17;;;;;;;7.15;2.80;;;15.00;94.10;;;;;;5067682;28;20027;-70
2022/08/29 01:53:44;;;;;;;4.95;2.60;;;15.00;94.10;;;;;;5065787;28;20119;-70
2022/08/29 01:56:17;;;;;;;9.00;3.15;;;15.00;94.00;;;;;;5064422;28;20047;-69
2022/08/29 01:58:46;;;;;;;4.88;2.45;;;15.00;94.10;;;;;;5063147;28;20032;-70
2022/08/29 02:01:15;;;;;;;8.00;2.55;;;15.00;94.10;;;;;;5062293;28;20098;-70
2022/08/29 02:03:41;;;;;;;6.97;2.92;;;15.00;94.10;;;;;;5062170;28;20067;-70
2022/08/29 02:06:09;;;;;;;7.38;3.00;;;15.00;94.10;;;;;;5059265;28;20096;-70
2022/08/29 02:08:37;;;;;;;6.88;2.60;;;15.00;94.10;;;;;;5070658;28;20405;-70
2022/08/29 02:11:05;;;;;;;5.95;3.20;;;14.90;94.20;;;;;;5065482;28;20037;-70
2022/08/29 02:13:30;;;;;;;9.20;2.88;;;14.90;94.20;;;;;;5064108;28;20039;-70
2022/08/29 02:15:56;;;;;;;6.75;3.42;;;14.90;94.10;;;;;;5063768;28;20032;-70
2022/08/29 02:18:22;;;;;;;10.90;3.40;;;14.90;94.10;;;;;;5064385;28;20055;-70
2022/08/29 02:20:48;;;;;;;5.93;2.88;;;14.90;94.10;;;;;;5063924;28;20105;-70
2022/08/29 02:23:13;;;;;;;9.93;3.25;;;14.90;94.20;;;;;;5065385;28;20045;-70
2022/08/29 02:25:42;;;;;;;8.15;3.00;;;14.90;94.10;;;;;;5072477;28;20047;-70
2022/08/29 02:28:13;;;;;;;5.20;3.03;;;14.90;94.20;;;;;;5067719;28;20558;-70
2022/08/29 02:30:42;;;;;;;8.93;3.10;;;14.90;94.20;;;;;;5066936;28;20111;-70
2022/08/29 02:33:10;;;;;;;9.77;3.65;;;14.90;94.40;;;;;;5068165;28;20149;-70
2022/08/29 02:35:36;;;;;;;7.80;3.65;;;14.90;94.30;;;;;;5070346;28;20495;-70
2022/08/29 02:38:02;;;;;;;6.32;2.83;;;14.90;94.20;;;;;;5070494;28;20048;-70
2022/08/29 02:40:28;;;;;;;8.23;3.47;;;14.90;94.10;;;;;;5062766;28;20031;-70
2022/08/29 02:42:55;;;;;;;11.70;3.95;;;15.00;94.10;;;;;;5064807;28;20032;-70
2022/08/29 02:45:22;;;;;;;6.47;3.22;;;15.00;94.00;;;;;;5069265;28;20032;-70
2022/08/29 02:47:48;;;;;;;6.47;2.70;;;15.00;93.90;;;;;;5069672;28;20020;-70
2022/08/29 02:50:14;;;;;;;7.57;3.08;;;15.00;93.80;;;;;;5069828;28;20234;-69
2022/08/29 02:52:41;;;;;;;9.13;3.05;;;14.90;93.90;;;;;;5066429;28;20511;-70
2022/08/29 02:55:10;;;;;;;8.38;3.20;;;14.90;93.80;;;;;;5064831;28;20425;-70
2022/08/29 02:57:36;;;;;;;11.00;3.85;;;14.90;93.80;;;;;;5063749;28;20040;-70
2022/08/29 03:00:07;;;;;;;6.25;3.40;;;15.00;93.80;;;;;;5066244;28;20032;-70
2022/08/29 03:02:33;;;;;;;6.57;3.40;;;14.90;93.60;;;;;;5076765;28;20036;-70
2022/08/29 03:04:59;;;;;;;9.52;3.92;;;14.90;93.70;;;;;;5072269;28;20048;-70
2022/08/29 03:07:25;;;;;;;6.78;3.35;;;15.00;93.80;;;;;;5073631;28;20131;-70
2022/08/29 03:09:51;;;;;;;9.02;3.67;;;14.90;93.60;;;;;;5073315;28;20151;-70
2022/08/29 03:12:17;;;;;;;8.63;3.05;;;15.00;93.50;;;;;;5071912;28;20143;-70
2022/08/29 03:14:43;;;;;;;6.20;2.90;;;14.90;93.50;;;;;;5070541;28;20074;-70
2022/08/29 03:17:10;;;;;;;7.13;3.15;;;14.90;93.60;;;;;;5066921;28;20052;-70
2022/08/29 03:19:35;;;;;;;9.98;3.67;;;14.90;93.70;;;;;;5065510;28;20032;-70
2022/08/29 03:22:01;;;;;;;9.00;2.90;;;14.80;93.80;;;;;;5072261;28;20034;-69
2022/08/29 03:24:27;;;;;;;7.63;3.00;;;14.80;93.80;;;;;;5075183;28;20020;-70
2022/08/29 03:26:54;;;;;;;7.78;3.33;;;14.80;93.90;;;;;;5070642;28;20033;-70
2022/08/29 03:29:20;;;;;;;13.90;3.88;;;14.80;93.90;;;;;;5079942;28;20169;-70
2022/08/29 03:31:46;;;;;;;7.38;3.40;;;14.80;94.00;;;;;;5068192;28;20020;-70
2022/08/29 03:34:13;;;;;;;6.25;3.03;;;14.80;94.00;;;;;;5074908;28;20103;-70
2022/08/29 03:36:40;;;;;;;9.30;3.70;;;14.80;94.10;;;;;;5064494;28;20024;-70
2022/08/29 03:39:06;;;;;;;8.02;3.13;;;14.80;94.50;;;;;;5066494;28;20033;-70
2022/08/29 03:41:32;;;;;;;8.25;3.63;;;14.80;94.20;;;;;;5078827;28;20221;-70
2022/08/29 03:43:58;;;;;;;9.20;3.78;;;14.70;94.20;;;;;;5075135;28;20089;-70
2022/08/29 03:46:25;;;;;;;8.73;3.65;;;14.70;94.30;;;;;;5077501;28;20040;-70
2022/08/29 03:48:50;;;;;;;9.20;3.90;;;14.70;94.40;;;;;;5075780;28;20304;-70
2022/08/29 03:51:17;;;;;;;9.35;3.83;;;14.70;94.50;;;;;;5066856;28;20445;-70
2022/08/29 03:53:43;;;;;;;11.68;4.05;;;14.70;94.50;;;;;;5064307;28;20129;-71
2022/08/29 03:56:09;;;;;;;6.45;3.58;;;14.70;94.40;;;;;;5064692;28;20086;-71
2022/08/29 03:58:36;;;;;;;11.65;4.07;;;14.70;94.70;;;;;;5066073;28;20036;-71
2022/08/29 04:01:03;;;;;;;8.32;3.90;;;14.70;94.50;;;;;;5073429;28;20040;-71
2022/08/29 04:03:29;;;;;;;9.30;3.97;;;14.70;94.40;;;;;;5071346;28;20036;-71
2022/08/29 04:05:55;;;;;;;11.85;3.63;;;14.70;94.40;;;;;;5066813;28;20040;-71
2022/08/29 04:08:20;;;;;;;8.02;3.30;;;14.70;94.40;;;;;;5070327;28;20032;-71
2022/08/29 04:10:46;;;;;;;8.52;3.90;;;14.60;94.30;;;;;;5064524;28;20795;-71
2022/08/29 04:13:12;;;;;;;7.80;3.78;;;14.60;94.40;;;;;;5064844;28;20727;-71
2022/08/29 04:15:41;;;;;;;12.10;4.25;;;14.60;94.40;;;;;;5063798;28;20135;-71
2022/08/29 04:18:09;;;;;;;9.07;3.78;;;14.60;94.50;;;;;;5062372;28;20036;-71
2022/08/29 04:20:40;;;;;;;5.88;3.35;;;14.60;94.60;;;;;;5072895;28;20037;-71
2022/08/29 04:23:06;;;;;;;9.90;3.80;;;14.60;94.90;;;;;;5067587;28;20036;-71
2022/08/29 04:25:36;;;;;;;10.57;4.07;;;14.60;95.00;;;;;;5069726;28;20364;-71
2022/08/29 04:28:07;;;;;;;10.25;3.88;;;14.60;95.10;;;;;;5065556;28;20056;-71
2022/08/29 04:30:35;;;;;;;9.68;4.35;;;14.60;95.20;;;;;;5064475;28;20031;-71
2022/08/29 04:33:00;;;;;;;7.38;3.50;;;14.60;95.50;;;;;;5069484;28;21139;-71
2022/08/29 04:35:26;;;;;;;12.85;3.92;;;14.70;95.20;;;;;;5062729;28;20036;-71
2022/08/29 04:37:52;;;;;;;11.05;3.95;;;14.70;95.20;;;;;;5065191;28;20035;-71
2022/08/29 04:40:20;;;;;;;8.40;4.45;;;14.80;95.20;;;;;;5072044;28;20055;-71
2022/08/29 04:42:46;;;;;;;8.55;3.90;;;14.90;95.20;;;;;;5070504;28;20074;-71
2022/08/29 04:45:15;;;;;;;10.80;4.32;;;15.00;95.00;;;;;;5066840;28;20043;-70
2022/08/29 04:47:41;;;;;;;10.90;4.15;;;15.10;94.90;;;;;;5065293;28;20013;-70
2022/08/29 04:50:11;;;;;;;16.15;4.10;;;15.20;94.80;;;;;;5066741;28;20064;-71
2022/08/29 04:52:37;;;;;;;7.70;3.72;;;15.30;94.70;;;;;;5075709;28;20028;-71
2022/08/29 04:55:07;;;;;;;8.55;3.40;;;15.30;94.50;;;;;;5073258;28;20032;-71
2022/08/29 04:57:37;;;;;;;10.85;4.45;;;15.40;94.50;;;;;;5068439;28;20032;-71
2022/08/29 05:00:05;;;;;;;8.25;3.90;;;15.50;94.30;;;;;;5067359;28;20094;-71
2022/08/29 05:02:31;;;;;;;6.40;3.65;;;15.50;94.20;;;;;;5066142;28;20118;-71
2022/08/29 05:04:57;;;;;;;9.07;3.80;;;15.60;94.10;;;;;;5066780;28;20440;-71
2022/08/29 05:07:24;;;;;;;12.40;4.00;;;15.70;94.00;;;;;;5066682;28;20035;-72
2022/08/29 05:10:01;;;;;;;7.90;3.85;;;15.80;93.80;;;;;;5062811;28;20033;-71
2022/08/29 05:12:28;;;;;;;7.93;3.97;;;15.80;93.70;;;;;;5061602;28;20170;-71
2022/08/29 05:14:55;;;;;;;10.68;4.25;;;15.80;93.40;;;;;;5067247;28;20032;-71
2022/08/29 05:17:22;;;;;;;8.85;3.95;;;15.90;93.50;;;;;;5075469;28;20039;-71
2022/08/29 05:19:48;;;;;;;9.35;4.38;;;16.00;93.30;;;;;;5067492;28;20415;-71
2022/08/29 05:22:15;;;;;;;8.32;4.07;;;16.00;93.00;;;;;;5067287;28;20025;-71
2022/08/29 05:24:41;;;;;;;6.95;3.88;;;16.00;93.00;;;;;;5067972;28;20044;-71
2022/08/29 05:27:13;;;;;;;7.53;3.92;;;16.00;92.60;;;;;;5064140;28;20024;-71
2022/08/29 05:29:40;;;;;;;10.48;3.75;;;16.00;92.60;;;;;;5063052;28;20020;-71
2022/08/29 05:32:09;;;;;;;9.50;4.30;;;16.10;92.80;;;;;;5060841;28;20063;-71
2022/08/29 05:34:36;;;;;;;9.60;3.72;;;16.10;92.90;;;;;;5072752;28;20212;-71
2022/08/29 05:37:05;;;;;;;9.68;4.05;;;16.20;92.60;;;;;;5067258;28;20121;-71
2022/08/29 05:39:31;;;;;;;13.23;4.10;;;16.20;92.50;;;;;;5066812;28;20061;-71
2022/08/29 05:41:58;;;;;;;9.52;4.22;;;16.30;92.60;;;;;;5065005;28;20044;-71
2022/08/29 05:44:26;;;;;;;13.02;4.47;;;16.30;92.50;;;;;;5072377;28;20488;-71
2022/08/29 05:46:51;;;;;;;8.77;3.65;;;16.40;92.30;;;;;;5063754;28;20032;-71
2022/08/29 05:49:17;;;;;;;7.88;3.50;;;16.40;92.20;;;;;;5066045;28;20400;-71
2022/08/29 05:51:43;;;;;;;7.97;3.70;;;16.40;92.30;;;;;;5060870;28;20049;-71
2022/08/29 05:54:09;;;;;;;7.72;3.50;;;16.40;92.40;;;;;;5073727;28;20032;-71
2022/08/29 05:56:35;;;;;;;11.82;4.25;;;16.50;92.60;;;;;;5070185;28;20530;-71
2022/08/29 05:59:01;;;;;;;10.85;3.72;;;16.60;92.50;;;;;;5074658;28;20031;-71
2022/08/29 06:01:29;;;;;;;7.72;3.28;;;16.60;92.30;;;;;;5069465;28;20494;-71
2022/08/29 06:03:56;;;;;;;10.55;3.78;;;16.70;92.30;;;;;;5072988;28;20840;-71
2022/08/29 06:06:24;;;;;;;9.55;3.53;;;16.70;92.20;;;;;;5073238;28;20035;-71
2022/08/29 06:08:51;;;;;;;11.13;4.13;;;16.70;92.20;;;;;;5070840;28;20024;-72
2022/08/29 06:11:19;;;;;;;11.48;4.18;;;16.80;92.10;;;;;;5067350;28;20086;-71
2022/08/29 06:13:46;;;;;;;13.57;4.43;;;16.80;91.70;;;;;;5072419;28;20063;-71
2022/08/29 06:16:17;;;;;;;14.45;4.30;;;16.80;91.60;;;;;;5073729;28;20035;-71
2022/08/29 06:18:44;;;;;;;13.80;4.40;;;16.80;91.60;;;;;;5068202;28;20033;-70
2022/08/29 06:21:11;;;;;;;9.50;4.45;;;16.90;91.60;;;;;;5065886;28;20557;-71
2022/08/29 06:23:38;;;;;;;6.00;3.88;;;16.90;91.70;;;;;;5066910;28;20033;-71
2022/08/29 06:26:04;;;;;;;9.32;3.90;;;16.90;91.80;;;;;;5062906;28;20078;-71
2022/08/29 06:28:33;;;;;;;10.82;3.63;;;17.00;91.80;;;;;;5062043;28;20017;-71
2022/08/29 06:31:10;;;;;;;8.57;4.05;;;17.00;91.70;;;;;;5064771;28;20036;-71
2022/08/29 06:33:36;;;;;;;6.72;3.50;;;17.00;91.70;;;;;;5070001;28;20116;-71
2022/08/29 06:36:04;;;;;;;10.40;4.72;;;17.00;91.90;;;;;;5076642;28;20082;-71
2022/08/29 06:38:30;;;;;;;8.13;4.60;;;17.10;91.80;;;;;;5074752;28;20024;-71
2022/08/29 06:40:56;;;;;;;10.73;4.63;;;17.10;91.60;;;;;;5069372;28;20029;-71
2022/08/29 06:43:22;;;;;;;10.70;4.53;;;17.10;91.70;;;;;;5073259;28;20040;-71
2022/08/29 06:45:48;;;;;;;9.18;4.20;;;17.10;91.80;;;;;;5073276;28;20064;-71
2022/08/29 06:48:14;;;;;;;13.90;4.47;;;17.20;91.80;;;;;;5075591;28;20079;-71
2022/08/29 06:50:40;;;;;;;11.82;4.57;;;17.20;91.50;;;;;;5085852;28;20044;-71
2022/08/29 06:53:09;;;;;;;10.52;4.25;;;17.10;91.40;;;;;;5075472;28;20441;-71
2022/08/29 06:55:36;;;;;;;7.32;4.28;;;17.10;91.60;;;;;;5078957;28;20391;-71
2022/08/29 06:58:03;;;;;;;12.60;4.20;;;17.20;91.60;;;;;;5070132;28;20043;-71
2022/08/29 07:00:29;;;;;;;9.23;4.18;;;17.20;91.60;;;;;;5070494;28;20035;-71
2022/08/29 07:02:54;;;;;;;8.07;4.50;;;17.20;91.70;;;;;;5067873;28;20040;-71
2022/08/29 07:05:21;;;;;;;13.32;5.32;;;17.20;91.80;;;;;;5067398;28;20489;-71
2022/08/29 07:07:47;;;;;;;13.63;4.15;;;17.20;91.70;;;;;;5069852;28;20487;-71
2022/08/29 07:10:13;;;;;;;12.23;4.45;;;17.20;91.80;;;;;;5078297;28;20040;-71
2022/08/29 07:12:40;;;;;;;9.38;4.72;;;17.20;91.90;;;;;;5075197;28;20020;-71
2022/08/29 07:15:07;;;;;;;10.07;4.03;;;17.30;92.40;;;;;;5074380;28;20044;-71
2022/08/29 07:17:33;;;;;;;8.10;4.38;;;17.30;92.10;;;;;;5072937;28;20035;-71
2022/08/29 07:19:59;;;;;;;8.85;4.00;;;17.40;92.10;;;;;;5074063;28;20185;-71
2022/08/29 07:22:25;;;;;;;7.75;3.85;;;17.50;92.20;;;;;;5067120;28;20085;-71
2022/08/29 07:24:54;;;;;;;7.28;4.40;;;17.50;92.10;;;;;;5065662;28;20063;-71
2022/08/29 07:27:21;;;;;;;9.55;4.20;;;17.60;92.20;;;;;;5071178;28;20032;-71
2022/08/29 07:29:47;;;;;;;11.30;4.78;;;17.70;92.00;;;;;;5073058;28;20032;-71
2022/08/29 07:32:13;;;;;;;11.13;4.70;;;17.70;91.90;;;;;;5076594;28;20032;-71
2022/08/29 07:34:38;;;;;;;16.20;4.70;;;17.80;91.90;;;;;;5071013;28;20089;-71
2022/08/29 07:37:04;;;;;;;18.92;4.93;;;17.80;91.80;;;;;;5072213;28;20109;-71
2022/08/29 07:39:31;;;;;;;9.18;4.40;;;17.80;91.70;;;;;;5073551;28;20097;-71
2022/08/29 07:41:57;;;;;;;12.55;4.43;;;17.90;91.70;;;;;;5064375;28;20040;-71
2022/08/29 07:44:24;;;;;;;10.15;4.82;;;17.90;92.00;;;;;;5073142;28;20036;-71
2022/08/29 07:46:58;;;;;;;12.82;4.32;;;18.00;91.80;;;;;;5071893;28;20028;-71
2022/08/29 07:49:25;;;;;;;12.65;5.15;;;18.00;91.70;;;;;;5073976;28;20153;-71
2022/08/29 07:51:52;;;;;;;10.60;4.95;;;18.10;91.70;;;;;;5069680;28;20867;-71
2022/08/29 07:54:18;;;;;;;8.20;4.72;;;18.20;91.70;;;;;;5070566;28;20039;-71
2022/08/29 07:56:46;;;;;;;12.60;5.00;;;18.20;91.80;;;;;;5068083;28;20412;-71
2022/08/29 07:59:12;;;;;;;9.70;4.20;;;18.30;91.70;;;;;;5070236;28;20484;-71
2022/08/29 08:01:39;;;;;;;9.88;4.95;;;18.40;91.60;;;;;;5064916;28;20404;-71
2022/08/29 08:04:05;;;;;;;9.13;4.10;;;18.40;91.30;;;;;;5072116;28;20052;-71
2022/08/29 08:06:33;;;;;;;9.30;4.03;;;18.50;91.50;;;;;;5076262;28;20035;-71
2022/08/29 08:08:58;;;;;;;7.28;4.13;;;18.50;91.60;;;;;;5064843;28;20412;-71
2022/08/29 08:11:25;;;;;;;11.00;5.07;;;18.60;91.70;;;;;;5072133;28;20154;-71
2022/08/29 08:13:53;;;;;;;9.27;4.80;;;18.80;91.50;;;;;;5068168;28;20380;-71
2022/08/29 08:16:21;;;;;;;10.48;4.75;;;18.80;91.10;;;;;;5068342;28;20105;-71
2022/08/29 08:18:47;;;;;;;10.07;5.45;;;18.90;91.30;;;;;;5066201;28;20032;-71
2022/08/29 08:21:13;;;;;;;10.48;5.00;;;18.90;91.10;;;;;;5066964;28;20032;-71
2022/08/29 08:23:40;;;;;;;11.57;4.85;;;18.90;91.10;;;;;;5069271;28;20028;-71
2022/08/29 08:26:07;;;;;;;11.82;4.50;;;18.90;91.10;;;;;;5076558;28;20024;-72
2022/08/29 08:28:33;;;;;;;12.68;5.50;;;19.00;91.00;;;;;;5081124;28;20057;-71
2022/08/29 08:31:00;;;;;;;11.35;5.22;;;19.00;90.90;;;;;;5068077;28;20066;-71
2022/08/29 08:33:26;;;;;;;10.07;4.90;;;19.00;91.10;;;;;;5069054;28;20842;-71
2022/08/29 08:35:52;;;;;;;9.35;4.53;;;19.00;91.30;;;;;;5069797;28;20039;-72
2022/08/29 08:38:20;;;;;;;8.77;4.80;;;19.00;91.50;;;;;;5069398;28;20024;-71
2022/08/29 08:40:55;;;;;;;11.20;5.10;;;19.20;91.40;;;;;;5063698;28;20035;-71
2022/08/29 08:43:30;;;;;;;10.68;5.43;;;19.30;91.40;;;;;;5068877;28;20044;-71
2022/08/29 08:45:55;;;;;;;14.38;5.32;;;19.40;90.90;;;;;;5074549;28;20036;-71
2022/08/29 08:48:34;;;;;;;9.15;4.78;;;19.50;90.60;;;;;;5080414;28;20043;-71
2022/08/29 08:51:24;;;;;;;10.00;4.78;;;19.50;90.40;;;;;;5078988;28;20028;-71
2022/08/29 08:53:56;;;;;;;7.28;4.60;;;19.50;90.50;;;;;;5066026;28;20024;-72
2022/08/29 08:56:34;;;;;;;16.63;5.50;;;19.60;90.40;;;;;;5068937;28;20624;-71
2022/08/29 08:59:24;;;;;;;10.38;4.68;;;19.70;90.50;;;;;;5062716;28;20044;-71
2022/08/29 09:02:16;;;;;;;10.40;5.15;;;19.70;90.40;;;;;;5066130;28;20085;-71
2022/08/29 09:04:53;;;;;;;10.27;4.65;;;19.80;90.40;;;;;;5069496;28;20176;-71
2022/08/29 09:07:59;;;;;;;10.80;4.60;;;19.80;90.30;;;;;;5069974;28;20032;-71
2022/08/29 09:10:57;;;;;;;12.77;6.05;;;19.90;90.10;;;;;;5068765;28;20221;-71
2022/08/29 09:13:50;;;;;;;7.07;4.82;;;19.90;90.40;;;;;;5051788;28;20075;-71
2022/08/29 09:16:33;;;;;;;11.38;4.95;;;19.90;90.20;;;;;;5067149;28;20499;-71
2022/08/29 09:19:05;;;;;;;8.00;4.47;;;20.00;89.70;;;;;;5061477;28;20880;-71
2022/08/29 09:21:54;;;;;;;10.48;4.90;;;20.00;90.00;;;;;;5069503;28;20044;-72
2022/08/29 09:24:41;;;;;;;9.43;4.93;;;20.10;90.00;;;;;;5072212;28;20032;-71
2022/08/29 09:27:19;;;;;;;8.48;4.80;;;20.10;89.90;;;;;;5070519;28;20039;-72
2022/08/29 09:29:46;;;;;;;8.93;5.22;;;20.20;90.00;;;;;;5068251;28;20028;-71
2022/08/29 09:32:14;;;;;;;10.60;4.90;;;20.30;90.10;;;;;;5065660;28;20116;-72
2022/08/29 09:34:43;;;;;;;12.35;4.82;;;20.40;89.60;;;;;;5067120;28;20511;-71
2022/08/29 09:37:28;;;;;;;11.25;4.95;;;20.50;88.60;;;;;;5063517;28;20036;-71
2022/08/29 09:40:06;;;;;;;10.82;4.75;;;20.50;88.60;;;;;;5074478;28;20036;-71
2022/08/29 09:42:36;;;;;;;9.60;5.07;;;20.50;88.60;;;;;;5069077;28;20024;-71
2022/08/29 09:45:23;;;;;;;8.73;4.53;;;20.40;88.20;;;;;;5068977;28;20139;-71
2022/08/29 09:48:17;;;;;;;10.18;4.53;;;20.30;88.50;;;;;;5068311;28;20086;-72
2022/08/29 09:50:43;;;;;;;8.02;5.30;;;20.40;88.80;;;;;;5076918;28;20055;-71
2022/08/29 09:53:09;;;;;;;10.93;4.65;;;20.40;88.50;;;;;;5064265;28;20073;-71
2022/08/29 09:55:44;;;;;;;6.80;4.53;;;20.40;89.00;;;;;;5062683;28;20032;-71
2022/08/29 09:58:19;;;;;;;8.02;4.47;;;20.40;89.00;;;;;;5066625;28;20032;-71
2022/08/29 10:01:01;;;;;;;8.43;4.80;;;20.40;88.90;;;;;;5070198;28;20100;-72
2022/08/29 10:03:32;;;;;;;5.55;4.03;;;20.40;89.40;;;;;;5075356;28;20357;-72
2022/08/29 10:06:18;;;;;;;8.55;4.43;;;20.40;89.40;;;;;;5068504;28;20041;-71
2022/08/29 10:09:06;;;;;;;9.32;4.50;;;20.50;89.30;;;;;;5083557;28;20123;-72
2022/08/29 10:11:42;;;;;;;5.57;4.30;;;20.50;88.60;;;;;;5074486;28;20082;-72
2022/08/29 10:14:27;;;;;;;;;;;20.50;89.40;;;;;;5071146;28;20028;-71
2022/08/29 10:20:58;;;;;;;8.98;3.97;;;20.60;89.40;;;;;;5070523;28;20168;-72
2022/08/29 10:23:31;;;;;;;6.45;3.88;;;20.60;88.80;;;;;;5071254;28;20043;-71
2022/08/29 10:26:03;;;;;;;7.88;3.88;;;20.70;88.40;;;;;;5082426;28;20036;-71
2022/08/29 10:28:31;;;;;;;5.32;4.05;;;20.70;88.20;;;;;;5080275;28;20032;-72
2022/08/29 10:31:07;;;;;;;7.95;4.57;;;20.70;88.00;;;;;;5078829;28;20032;-72
2022/08/29 10:33:45;;;;;;;;;;;20.80;87.70;;;;;;5076563;28;20025;-72
2022/08/29 10:36:23;;;;;;;7.50;4.22;;;20.80;87.60;;;;;;5070677;28;19919;-72
2022/08/29 10:39:27;;;;;;;6.57;4.40;;;20.90;87.50;;;;;;5075633;28;20669;-72
2022/08/29 10:42:02;;;;;;;6.10;3.67;;;20.90;87.10;;;;;;5069414;28;20045;-71
2022/08/29 10:44:55;;;;;;;8.02;4.50;;;21.00;87.00;;;;;;5070683;28;20039;-72
2022/08/29 10:47:34;;;;;;;9.55;4.50;;;21.00;86.40;;;;;;5069753;28;20040;-71
2022/08/29 10:50:26;;;;;;;8.43;4.50;;;21.00;86.20;;;;;;5070349;28;20495;-71
2022/08/29 10:53:15;;;;;;;34.55;17.23;;;20.90;86.70;;;;;;5064676;28;20032;-71
2022/08/29 10:55:57;;;;;;;13.38;5.35;;;21.00;86.80;;;;;;5075995;28;20024;-72
2022/08/29 10:58:40;;;;;;;6.00;4.32;;;21.00;86.50;;;;;;5072643;28;20039;-71
2022/08/29 11:01:25;;;;;;;9.68;4.53;;;20.90;86.40;;;;;;5070043;28;20036;-71
2022/08/29 11:04:16;;;;;;;8.98;4.00;;;21.00;86.30;;;;;;5076903;28;20038;-71
2022/08/29 11:06:53;;;;;;;5.38;4.40;;;21.00;86.30;;;;;;5067986;28;20064;-71
2022/08/29 11:09:50;;;;;;;8.38;5.28;;;21.00;86.40;;;;;;5072222;28;20028;-72
2022/08/29 11:12:44;;;;;;;7.88;4.63;;;21.00;86.40;;;;;;5071147;28;20121;-72
2022/08/29 11:15:24;;;;;;;8.95;4.43;;;21.10;86.00;;;;;;5077161;28;20028;-71
2022/08/29 11:18:09;;;;;;;7.47;4.50;;;21.30;86.00;;;;;;5077616;28;20035;-71
2022/08/29 11:20:45;;;;;;;9.02;4.30;;;21.50;85.50;;;;;;5071582;28;20028;-71
2022/08/29 11:23:11;;;;;;;7.95;4.13;;;21.50;84.80;;;;;;5069561;28;20033;-71
2022/08/29 11:25:40;;;;;;;8.23;4.93;;;21.60;84.40;;;;;;5068420;28;20358;-71
2022/08/29 11:28:44;;;;;;;11.23;4.50;;;21.60;84.40;;;;;;5077503;28;20039;-71
2022/08/29 11:31:18;;;;;;;7.68;3.97;;;21.60;84.10;;;;;;5066322;28;20039;-70
2022/08/29 11:33:54;;;;;;;6.60;4.47;;;21.60;84.60;;;;;;5074373;28;20055;-70
2022/08/29 11:36:51;;;;;;;5.72;3.95;;;21.70;83.70;;;;;;5073233;28;20047;-70
2022/08/29 11:39:29;;;;;;;8.30;3.72;;;21.70;83.90;;;;;;5074594;28;20112;-70
2022/08/29 11:42:00;;;;;;;7.93;4.03;;;21.90;83.30;;;;;;5068562;28;20038;-70
2022/08/29 11:44:36;;;;;;;10.60;4.20;;;22.00;82.20;;;;;;5071549;28;20028;-70
2022/08/29 11:47:40;;;;;;;9.60;4.25;;;22.10;82.00;;;;;;5073933;28;20127;-70
2022/08/29 11:50:15;;;;;;;13.85;4.43;;;22.20;81.00;;;;;;5065326;28;20115;-70
2022/08/29 11:53:03;;;;;;;9.88;4.13;;;22.20;81.60;;;;;;5074055;28;20028;-70
2022/08/29 11:55:41;;;;;;;8.35;4.20;;;22.10;81.60;;;;;;5074882;28;20531;-70
2022/08/29 11:58:27;;;;;;;7.72;4.40;;;22.20;81.40;;;;;;5069625;28;20037;-70
2022/08/29 12:00:54;;;;;;;;;;;22.20;81.50;;;;;;5064671;28;20067;-70
2022/08/29 12:03:32;;;;;;;6.32;3.40;;;22.40;81.90;;;;;;5067672;28;19908;-70
2022/08/29 12:06:19;;;;;;;9.55;3.75;;;22.40;81.50;;;;;;5068109;28;20043;-70
2022/08/29 12:09:12;;;;;;;6.35;3.75;;;22.60;81.00;;;;;;5075994;28;20024;-71
2022/08/29 12:12:12;;;;;;;9.52;4.22;;;22.80;80.80;;;;;;5075574;28;20039;-70
2022/08/29 12:14:44;;;;;;;9.45;3.97;;;23.00;79.20;;;;;;5074864;28;20028;-70
2022/08/29 12:17:33;;;;;;;8.23;4.20;;;23.10;77.70;;;;;;5069659;28;20178;-70
2022/08/29 12:19:59;;;;;;;7.07;3.72;;;23.10;77.20;;;;;;5064538;28;20044;-70
2022/08/29 12:22:55;;;;;;;9.35;3.70;;;23.10;77.60;;;;;;5072715;28;20047;-70
2022/08/29 12:25:26;;;;;;;10.93;3.88;;;23.00;76.30;;;;;;5067479;28;20036;-69
2022/08/29 12:27:59;;;;;;;6.88;3.83;;;22.90;77.10;;;;;;5069070;28;20032;-70
2022/08/29 12:30:25;;;;;;;7.47;3.72;;;22.80;77.40;;;;;;5073449;28;20067;-70
2022/08/29 12:33:40;;;;;;;4.95;3.35;;;22.70;77.60;;;;;;5070066;28;20451;-70
2022/08/29 12:36:41;;;;;;;9.88;3.80;;;22.70;79.20;;;;;;5064399;28;20230;-70
2022/08/29 12:39:22;;;;;;;10.05;3.40;;;22.70;78.50;;;;;;5066219;28;20044;-71
2022/08/29 12:42:18;;;;;;;6.15;3.03;;;22.60;78.10;;;;;;5065068;28;20029;-71
2022/08/29 12:44:59;;;;;;;6.72;2.97;;;22.60;79.00;;;;;;5065589;28;20112;-71
2022/08/29 12:47:36;;;;;;;7.60;3.65;;;22.60;79.50;;;;;;5076910;28;20040;-71
2022/08/29 12:50:23;;;;;;;7.07;3.67;;;22.70;79.50;;;;;;5072103;28;20462;-71
2022/08/29 12:53:22;;;;;;;7.93;3.53;;;22.80;78.30;;;;;;5068256;28;20465;-71
2022/08/29 12:55:53;;;;;;;4.80;3.40;;;22.80;77.80;;;;;;5067420;28;20039;-71
2022/08/29 12:58:41;;;;;;;6.72;3.63;;;22.70;78.40;;;;;;5068258;28;20048;-70
2022/08/29 13:01:29;;;;;;;7.57;3.35;;;22.60;78.50;;;;;;5068328;28;20032;-65
2022/08/29 13:04:03;;;;;;;5.90;3.78;;;22.60;79.70;;;;;;5063287;28;20048;-71
2022/08/29 13:06:30;;;;;;;5.97;3.42;;;22.60;78.90;;;;;;5065892;28;20032;-70
2022/08/29 13:08:57;;;;;;;7.53;4.05;;;22.70;78.80;;;;;;5077330;28;20135;-71
2022/08/29 13:11:26;;;;;;;6.85;3.50;;;22.80;79.10;;;;;;5070966;28;20519;-71
2022/08/29 13:14:10;;;;;;;6.60;3.70;;;22.80;78.40;;;;;;5068680;28;20029;-70